sensor_id;sensor_type;location;lat;lon;timestamp;P1;durP1;ratioP1;P2;durP2;ratioP2
19816;SDS011;68323;49.394;8.434;2023-04-05T00:01:25;16.13;;;7.30;;
19816;SDS011;68323;49.394;8.434;2023-04-05T00:03:52;13.80;;;7.13;;
19816;SDS011;68323;49.394;8.434;2023-04-05T00:06:19;12.67;;;7.33;;
19816;SDS011;68323;49.394;8.434;2023-04-05T00:08:53;15.43;;;6.93;;
19816;SDS011;68323;49.394;8.434;2023-04-05T00:11:22;14.23;;;6.70;;
19816;SDS011;68323;49.394;8.434;2023-04-05T00:13:48;10.57;;;6.80;;
19816;SDS011;68323;49.394;8.434;2023-04-05T00:16:14;13.57;;;6.10;;
19816;SDS011;68323;49.394;8.434;2023-04-05T00:18:40;11.93;;;7.13;;
19816;SDS011;68323;49.394;8.434;2023-04-05T00:21:10;11.93;;;6.60;;
19816;SDS011;68323;49.394;8.434;2023-04-05T00:23:38;10.83;;;6.97;;
19816;SDS011;68323;49.394;8.434;2023-04-05T00:26:05;10.67;;;7.53;;
19816;SDS011;68323;49.394;8.434;2023-04-05T00:28:31;15.20;;;7.17;;
19816;SDS011;68323;49.394;8.434;2023-04-05T00:30:56;13.13;;;7.00;;
19816;SDS011;68323;49.394;8.434;2023-04-05T00:33:22;12.83;;;7.03;;
19816;SDS011;68323;49.394;8.434;2023-04-05T00:35:47;11.87;;;6.30;;
19816;SDS011;68323;49.394;8.434;2023-04-05T00:38:13;11.30;;;7.33;;
19816;SDS011;68323;49.394;8.434;2023-04-05T00:40:38;14.47;;;8.03;;
19816;SDS011;68323;49.394;8.434;2023-04-05T00:43:04;16.47;;;8.73;;
19816;SDS011;68323;49.394;8.434;2023-04-05T00:45:29;14.97;;;7.80;;
19816;SDS011;68323;49.394;8.434;2023-04-05T00:47:55;18.93;;;8.53;;
19816;SDS011;68323;49.394;8.434;2023-04-05T00:50:21;18.23;;;8.67;;
19816;SDS011;68323;49.394;8.434;2023-04-05T00:52:47;14.43;;;8.33;;
19816;SDS011;68323;49.394;8.434;2023-04-05T00:55:14;14.37;;;8.13;;
19816;SDS011;68323;49.394;8.434;2023-04-05T00:57:40;16.40;;;8.50;;
19816;SDS011;68323;49.394;8.434;2023-04-05T01:00:06;23.20;;;9.23;;
19816;SDS011;68323;49.394;8.434;2023-04-05T01:02:39;16.73;;;9.63;;
19816;SDS011;68323;49.394;8.434;2023-04-05T01:05:16;21.10;;;10.27;;
19816;SDS011;68323;49.394;8.434;2023-04-05T01:08:17;25.77;;;9.70;;
19816;SDS011;68323;49.394;8.434;2023-04-05T01:10:56;21.33;;;10.30;;
19816;SDS011;68323;49.394;8.434;2023-04-05T01:13:27;26.90;;;10.60;;
19816;SDS011;68323;49.394;8.434;2023-04-05T01:15:53;21.73;;;9.23;;
19816;SDS011;68323;49.394;8.434;2023-04-05T01:18:19;22.50;;;9.97;;
19816;SDS011;68323;49.394;8.434;2023-04-05T01:20:48;19.90;;;10.43;;
19816;SDS011;68323;49.394;8.434;2023-04-05T01:28:48;28.30;;;11.43;;
19816;SDS011;68323;49.394;8.434;2023-04-05T01:36:51;21.40;;;10.70;;
19816;SDS011;68323;49.394;8.434;2023-04-05T01:39:20;27.40;;;11.63;;
19816;SDS011;68323;49.394;8.434;2023-04-05T01:41:47;20.30;;;10.03;;
19816;SDS011;68323;49.394;8.434;2023-04-05T01:44:12;17.63;;;11.33;;
19816;SDS011;68323;49.394;8.434;2023-04-05T01:46:38;19.47;;;12.03;;
19816;SDS011;68323;49.394;8.434;2023-04-05T01:49:03;25.73;;;11.37;;
19816;SDS011;68323;49.394;8.434;2023-04-05T01:51:29;19.30;;;11.57;;
19816;SDS011;68323;49.394;8.434;2023-04-05T01:53:55;18.87;;;11.10;;
19816;SDS011;68323;49.394;8.434;2023-04-05T01:56:21;18.73;;;11.03;;
19816;SDS011;68323;49.394;8.434;2023-04-05T01:58:46;18.93;;;10.90;;
19816;SDS011;68323;49.394;8.434;2023-04-05T02:01:12;19.47;;;11.10;;
19816;SDS011;68323;49.394;8.434;2023-04-05T02:03:37;23.33;;;11.53;;
19816;SDS011;68323;49.394;8.434;2023-04-05T02:06:03;29.67;;;12.10;;
19816;SDS011;68323;49.394;8.434;2023-04-05T02:08:29;20.03;;;11.93;;
19816;SDS011;68323;49.394;8.434;2023-04-05T02:10:55;26.47;;;11.93;;
19816;SDS011;68323;49.394;8.434;2023-04-05T02:13:21;22.07;;;12.10;;
19816;SDS011;68323;49.394;8.434;2023-04-05T02:15:47;31.03;;;12.30;;
19816;SDS011;68323;49.394;8.434;2023-04-05T02:18:14;30.00;;;12.60;;
19816;SDS011;68323;49.394;8.434;2023-04-05T02:20:39;23.33;;;11.83;;
19816;SDS011;68323;49.394;8.434;2023-04-05T02:23:05;24.93;;;11.67;;
19816;SDS011;68323;49.394;8.434;2023-04-05T02:25:32;21.63;;;11.67;;
19816;SDS011;68323;49.394;8.434;2023-04-05T02:27:58;18.93;;;11.03;;
19816;SDS011;68323;49.394;8.434;2023-04-05T02:30:23;21.73;;;11.57;;
19816;SDS011;68323;49.394;8.434;2023-04-05T02:32:52;21.87;;;11.47;;
19816;SDS011;68323;49.394;8.434;2023-04-05T02:35:19;17.80;;;11.30;;
19816;SDS011;68323;49.394;8.434;2023-04-05T02:37:45;19.50;;;11.87;;
19816;SDS011;68323;49.394;8.434;2023-04-05T02:40:11;18.27;;;11.43;;
19816;SDS011;68323;49.394;8.434;2023-04-05T02:42:38;20.30;;;11.30;;
19816;SDS011;68323;49.394;8.434;2023-04-05T02:45:04;19.97;;;11.30;;
19816;SDS011;68323;49.394;8.434;2023-04-05T02:47:32;22.70;;;11.40;;
19816;SDS011;68323;49.394;8.434;2023-04-05T02:49:58;16.37;;;11.03;;
19816;SDS011;68323;49.394;8.434;2023-04-05T02:52:23;18.67;;;11.93;;
19816;SDS011;68323;49.394;8.434;2023-04-05T02:54:49;20.63;;;12.13;;
19816;SDS011;68323;49.394;8.434;2023-04-05T02:57:15;24.80;;;12.87;;
19816;SDS011;68323;49.394;8.434;2023-04-05T02:59:40;17.60;;;11.93;;
19816;SDS011;68323;49.394;8.434;2023-04-05T03:02:07;25.23;;;12.43;;
19816;SDS011;68323;49.394;8.434;2023-04-05T03:04:33;21.37;;;12.93;;
19816;SDS011;68323;49.394;8.434;2023-04-05T03:07:02;21.03;;;12.93;;
19816;SDS011;68323;49.394;8.434;2023-04-05T03:09:28;24.63;;;13.73;;
19816;SDS011;68323;49.394;8.434;2023-04-05T03:11:58;22.20;;;13.13;;
19816;SDS011;68323;49.394;8.434;2023-04-05T03:14:25;21.97;;;12.60;;
19816;SDS011;68323;49.394;8.434;2023-04-05T03:16:51;20.20;;;12.83;;
19816;SDS011;68323;49.394;8.434;2023-04-05T03:19:17;21.10;;;12.70;;
19816;SDS011;68323;49.394;8.434;2023-04-05T03:21:46;21.30;;;12.60;;
19816;SDS011;68323;49.394;8.434;2023-04-05T03:24:13;18.43;;;12.63;;
19816;SDS011;68323;49.394;8.434;2023-04-05T03:26:40;22.67;;;12.73;;
19816;SDS011;68323;49.394;8.434;2023-04-05T03:29:07;21.57;;;13.20;;
19816;SDS011;68323;49.394;8.434;2023-04-05T03:31:33;22.00;;;13.57;;
19816;SDS011;68323;49.394;8.434;2023-04-05T03:33:58;18.33;;;12.67;;
19816;SDS011;68323;49.394;8.434;2023-04-05T03:36:24;18.83;;;13.03;;
19816;SDS011;68323;49.394;8.434;2023-04-05T03:38:52;23.60;;;13.50;;
19816;SDS011;68323;49.394;8.434;2023-04-05T03:41:20;22.57;;;13.40;;
19816;SDS011;68323;49.394;8.434;2023-04-05T03:43:45;23.53;;;13.60;;
19816;SDS011;68323;49.394;8.434;2023-04-05T03:46:11;30.80;;;14.90;;
19816;SDS011;68323;49.394;8.434;2023-04-05T03:48:36;29.13;;;14.93;;
19816;SDS011;68323;49.394;8.434;2023-04-05T03:51:02;22.03;;;13.03;;
19816;SDS011;68323;49.394;8.434;2023-04-05T03:53:27;25.57;;;13.37;;
19816;SDS011;68323;49.394;8.434;2023-04-05T03:55:53;24.00;;;13.83;;
19816;SDS011;68323;49.394;8.434;2023-04-05T03:58:19;21.63;;;13.93;;
19816;SDS011;68323;49.394;8.434;2023-04-05T04:00:45;24.57;;;14.70;;
19816;SDS011;68323;49.394;8.434;2023-04-05T04:03:11;25.50;;;15.07;;
19816;SDS011;68323;49.394;8.434;2023-04-05T04:05:38;22.50;;;13.90;;
19816;SDS011;68323;49.394;8.434;2023-04-05T04:08:04;24.50;;;14.80;;
19816;SDS011;68323;49.394;8.434;2023-04-05T04:10:30;24.20;;;14.27;;
19816;SDS011;68323;49.394;8.434;2023-04-05T04:12:56;24.97;;;15.53;;
19816;SDS011;68323;49.394;8.434;2023-04-05T04:15:22;24.83;;;14.33;;
19816;SDS011;68323;49.394;8.434;2023-04-05T04:17:47;25.03;;;14.27;;
19816;SDS011;68323;49.394;8.434;2023-04-05T04:20:13;24.40;;;14.07;;
19816;SDS011;68323;49.394;8.434;2023-04-05T04:22:38;27.00;;;15.80;;
19816;SDS011;68323;49.394;8.434;2023-04-05T04:25:05;23.30;;;14.20;;
19816;SDS011;68323;49.394;8.434;2023-04-05T04:27:41;24.63;;;14.47;;
19816;SDS011;68323;49.394;8.434;2023-04-05T04:30:08;20.03;;;13.63;;
19816;SDS011;68323;49.394;8.434;2023-04-05T04:32:35;27.40;;;14.43;;
19816;SDS011;68323;49.394;8.434;2023-04-05T04:35:17;24.80;;;15.73;;
19816;SDS011;68323;49.394;8.434;2023-04-05T04:40:27;25.63;;;15.13;;
19816;SDS011;68323;49.394;8.434;2023-04-05T04:43:17;25.07;;;15.10;;
19816;SDS011;68323;49.394;8.434;2023-04-05T04:45:43;23.73;;;15.13;;
19816;SDS011;68323;49.394;8.434;2023-04-05T04:48:14;23.30;;;13.83;;
19816;SDS011;68323;49.394;8.434;2023-04-05T04:50:43;26.97;;;15.20;;
19816;SDS011;68323;49.394;8.434;2023-04-05T04:53:09;22.37;;;14.17;;
19816;SDS011;68323;49.394;8.434;2023-04-05T04:55:38;23.70;;;13.77;;
19816;SDS011;68323;49.394;8.434;2023-04-05T04:58:07;21.60;;;14.17;;
19816;SDS011;68323;49.394;8.434;2023-04-05T05:00:37;27.03;;;13.47;;
19816;SDS011;68323;49.394;8.434;2023-04-05T05:03:04;26.37;;;13.77;;
19816;SDS011;68323;49.394;8.434;2023-04-05T05:05:31;23.73;;;13.63;;
19816;SDS011;68323;49.394;8.434;2023-04-05T05:07:56;23.20;;;13.30;;
19816;SDS011;68323;49.394;8.434;2023-04-05T05:10:22;32.53;;;14.87;;
19816;SDS011;68323;49.394;8.434;2023-04-05T05:12:47;20.13;;;12.50;;
19816;SDS011;68323;49.394;8.434;2023-04-05T05:15:13;22.03;;;14.70;;
19816;SDS011;68323;49.394;8.434;2023-04-05T05:17:38;24.23;;;13.73;;
19816;SDS011;68323;49.394;8.434;2023-04-05T05:20:04;21.63;;;13.73;;
19816;SDS011;68323;49.394;8.434;2023-04-05T05:22:37;26.03;;;15.57;;
19816;SDS011;68323;49.394;8.434;2023-04-05T05:25:04;25.93;;;14.67;;
19816;SDS011;68323;49.394;8.434;2023-04-05T05:27:30;25.90;;;15.43;;
19816;SDS011;68323;49.394;8.434;2023-04-05T05:29:57;24.93;;;14.93;;
19816;SDS011;68323;49.394;8.434;2023-04-05T05:32:23;24.50;;;14.27;;
19816;SDS011;68323;49.394;8.434;2023-04-05T05:34:49;24.27;;;14.47;;
19816;SDS011;68323;49.394;8.434;2023-04-05T05:37:14;31.93;;;15.50;;
19816;SDS011;68323;49.394;8.434;2023-04-05T05:39:41;24.90;;;14.30;;
19816;SDS011;68323;49.394;8.434;2023-04-05T05:42:08;24.30;;;14.07;;
19816;SDS011;68323;49.394;8.434;2023-04-05T05:44:34;21.87;;;13.57;;
19816;SDS011;68323;49.394;8.434;2023-04-05T05:47:00;19.93;;;10.70;;
19816;SDS011;68323;49.394;8.434;2023-04-05T05:49:25;18.73;;;9.17;;
19816;SDS011;68323;49.394;8.434;2023-04-05T05:51:52;15.77;;;8.13;;
19816;SDS011;68323;49.394;8.434;2023-04-05T05:54:17;13.30;;;8.53;;
19816;SDS011;68323;49.394;8.434;2023-04-05T05:56:43;18.13;;;7.73;;
19816;SDS011;68323;49.394;8.434;2023-04-05T05:59:08;18.23;;;8.00;;
19816;SDS011;68323;49.394;8.434;2023-04-05T06:01:35;14.00;;;7.67;;
19816;SDS011;68323;49.394;8.434;2023-04-05T06:04:02;15.33;;;7.47;;
19816;SDS011;68323;49.394;8.434;2023-04-05T06:06:28;13.90;;;6.90;;
19816;SDS011;68323;49.394;8.434;2023-04-05T06:08:54;10.93;;;6.93;;
19816;SDS011;68323;49.394;8.434;2023-04-05T06:11:19;13.80;;;6.63;;
19816;SDS011;68323;49.394;8.434;2023-04-05T06:13:46;14.97;;;7.03;;
19816;SDS011;68323;49.394;8.434;2023-04-05T06:16:12;14.23;;;7.17;;
19816;SDS011;68323;49.394;8.434;2023-04-05T06:18:38;10.03;;;6.73;;
19816;SDS011;68323;49.394;8.434;2023-04-05T06:21:04;12.53;;;7.10;;
19816;SDS011;68323;49.394;8.434;2023-04-05T06:23:29;15.00;;;7.37;;
19816;SDS011;68323;49.394;8.434;2023-04-05T06:25:55;9.50;;;6.03;;
19816;SDS011;68323;49.394;8.434;2023-04-05T06:28:21;12.93;;;6.73;;
19816;SDS011;68323;49.394;8.434;2023-04-05T06:30:46;10.00;;;6.57;;
19816;SDS011;68323;49.394;8.434;2023-04-05T06:33:12;11.27;;;6.30;;
19816;SDS011;68323;49.394;8.434;2023-04-05T06:35:37;10.27;;;6.53;;
19816;SDS011;68323;49.394;8.434;2023-04-05T06:38:03;13.53;;;6.73;;
19816;SDS011;68323;49.394;8.434;2023-04-05T06:40:28;12.70;;;6.10;;
19816;SDS011;68323;49.394;8.434;2023-04-05T06:42:54;11.87;;;6.00;;
19816;SDS011;68323;49.394;8.434;2023-04-05T06:45:19;12.13;;;6.10;;
19816;SDS011;68323;49.394;8.434;2023-04-05T06:47:45;10.00;;;6.33;;
19816;SDS011;68323;49.394;8.434;2023-04-05T06:50:10;13.13;;;7.23;;
19816;SDS011;68323;49.394;8.434;2023-04-05T06:52:36;14.23;;;7.33;;
19816;SDS011;68323;49.394;8.434;2023-04-05T06:55:02;7.50;;;6.27;;
19816;SDS011;68323;49.394;8.434;2023-04-05T06:57:28;12.73;;;6.93;;
19816;SDS011;68323;49.394;8.434;2023-04-05T06:59:54;16.53;;;6.73;;
19816;SDS011;68323;49.394;8.434;2023-04-05T07:02:20;11.30;;;7.00;;
19816;SDS011;68323;49.394;8.434;2023-04-05T07:04:46;10.00;;;6.10;;
19816;SDS011;68323;49.394;8.434;2023-04-05T07:07:12;10.57;;;6.60;;
19816;SDS011;68323;49.394;8.434;2023-04-05T07:09:38;10.30;;;5.63;;
19816;SDS011;68323;49.394;8.434;2023-04-05T07:12:04;12.63;;;6.10;;
19816;SDS011;68323;49.394;8.434;2023-04-05T07:14:31;13.63;;;6.13;;
19816;SDS011;68323;49.394;8.434;2023-04-05T07:16:58;16.00;;;6.77;;
19816;SDS011;68323;49.394;8.434;2023-04-05T07:19:23;10.43;;;5.70;;
19816;SDS011;68323;49.394;8.434;2023-04-05T07:21:50;12.63;;;5.63;;
19816;SDS011;68323;49.394;8.434;2023-04-05T07:24:16;16.07;;;6.10;;
19816;SDS011;68323;49.394;8.434;2023-04-05T07:26:41;13.20;;;5.60;;
19816;SDS011;68323;49.394;8.434;2023-04-05T07:29:09;10.60;;;5.93;;
19816;SDS011;68323;49.394;8.434;2023-04-05T07:31:35;16.35;;;5.50;;
19816;SDS011;68323;49.394;8.434;2023-04-05T07:34:02;9.93;;;5.80;;
19816;SDS011;68323;49.394;8.434;2023-04-05T07:36:27;12.00;;;6.47;;
19816;SDS011;68323;49.394;8.434;2023-04-05T07:38:54;17.10;;;6.53;;
19816;SDS011;68323;49.394;8.434;2023-04-05T07:41:23;12.85;;;6.45;;
19816;SDS011;68323;49.394;8.434;2023-04-05T07:43:49;19.42;;;5.70;;
19816;SDS011;68323;49.394;8.434;2023-04-05T07:46:15;12.68;;;6.03;;
19816;SDS011;68323;49.394;8.434;2023-04-05T07:48:40;13.70;;;6.00;;
19816;SDS011;68323;49.394;8.434;2023-04-05T07:51:06;8.63;;;5.57;;
19816;SDS011;68323;49.394;8.434;2023-04-05T07:53:34;14.93;;;5.60;;
19816;SDS011;68323;49.394;8.434;2023-04-05T07:56:04;7.97;;;4.80;;
19816;SDS011;68323;49.394;8.434;2023-04-05T07:58:30;22.10;;;6.43;;
19816;SDS011;68323;49.394;8.434;2023-04-05T08:00:59;8.45;;;4.00;;
19816;SDS011;68323;49.394;8.434;2023-04-05T08:03:25;8.55;;;4.43;;
19816;SDS011;68323;49.394;8.434;2023-04-05T08:05:51;9.05;;;4.45;;
19816;SDS011;68323;49.394;8.434;2023-04-05T08:08:16;12.73;;;4.90;;
19816;SDS011;68323;49.394;8.434;2023-04-05T08:10:42;9.57;;;4.32;;
19816;SDS011;68323;49.394;8.434;2023-04-05T08:13:08;6.30;;;3.90;;
19816;SDS011;68323;49.394;8.434;2023-04-05T08:15:33;6.63;;;4.38;;
19816;SDS011;68323;49.394;8.434;2023-04-05T08:17:59;6.90;;;4.03;;
19816;SDS011;68323;49.394;8.434;2023-04-05T08:20:25;5.90;;;3.90;;
19816;SDS011;68323;49.394;8.434;2023-04-05T08:22:50;6.70;;;3.70;;
19816;SDS011;68323;49.394;8.434;2023-04-05T08:25:16;9.93;;;4.57;;
19816;SDS011;68323;49.394;8.434;2023-04-05T08:27:41;7.82;;;4.82;;
19816;SDS011;68323;49.394;8.434;2023-04-05T08:30:07;11.13;;;4.60;;
19816;SDS011;68323;49.394;8.434;2023-04-05T08:32:33;9.27;;;4.68;;
19816;SDS011;68323;49.394;8.434;2023-04-05T08:34:59;9.82;;;4.80;;
19816;SDS011;68323;49.394;8.434;2023-04-05T08:37:25;14.35;;;4.63;;
19816;SDS011;68323;49.394;8.434;2023-04-05T08:39:50;9.18;;;4.70;;
19816;SDS011;68323;49.394;8.434;2023-04-05T08:42:16;6.15;;;4.28;;
19816;SDS011;68323;49.394;8.434;2023-04-05T08:44:47;15.68;;;4.60;;
19816;SDS011;68323;49.394;8.434;2023-04-05T08:47:17;9.15;;;4.60;;
19816;SDS011;68323;49.394;8.434;2023-04-05T08:49:43;9.68;;;4.40;;
19816;SDS011;68323;49.394;8.434;2023-04-05T08:52:10;10.88;;;4.85;;
19816;SDS011;68323;49.394;8.434;2023-04-05T08:54:36;9.35;;;4.90;;
19816;SDS011;68323;49.394;8.434;2023-04-05T08:57:02;11.23;;;5.35;;
19816;SDS011;68323;49.394;8.434;2023-04-05T08:59:30;9.18;;;4.95;;
19816;SDS011;68323;49.394;8.434;2023-04-05T09:01:59;6.75;;;4.30;;
19816;SDS011;68323;49.394;8.434;2023-04-05T09:04:28;7.97;;;4.20;;
19816;SDS011;68323;49.394;8.434;2023-04-05T09:06:59;9.40;;;4.70;;
19816;SDS011;68323;49.394;8.434;2023-04-05T09:09:27;9.20;;;4.70;;
19816;SDS011;68323;49.394;8.434;2023-04-05T09:11:59;10.63;;;4.88;;
19816;SDS011;68323;49.394;8.434;2023-04-05T09:14:27;8.27;;;4.40;;
19816;SDS011;68323;49.394;8.434;2023-04-05T09:16:55;6.72;;;4.28;;
19816;SDS011;68323;49.394;8.434;2023-04-05T09:19:22;7.78;;;4.03;;
19816;SDS011;68323;49.394;8.434;2023-04-05T09:22:00;9.00;;;4.53;;
19816;SDS011;68323;49.394;8.434;2023-04-05T09:24:35;8.80;;;4.50;;
19816;SDS011;68323;49.394;8.434;2023-04-05T09:29:31;8.95;;;4.10;;
19816;SDS011;68323;49.394;8.434;2023-04-05T09:31:57;9.23;;;4.57;;
19816;SDS011;68323;49.394;8.434;2023-04-05T09:34:24;15.60;;;4.75;;
19816;SDS011;68323;49.394;8.434;2023-04-05T09:36:50;8.57;;;4.30;;
19816;SDS011;68323;49.394;8.434;2023-04-05T09:39:16;6.85;;;4.22;;
19816;SDS011;68323;49.394;8.434;2023-04-05T09:42:03;9.77;;;4.70;;
19816;SDS011;68323;49.394;8.434;2023-04-05T09:44:49;4.85;;;4.07;;
19816;SDS011;68323;49.394;8.434;2023-04-05T09:47:15;5.93;;;4.35;;
19816;SDS011;68323;49.394;8.434;2023-04-05T09:49:42;7.82;;;4.57;;
19816;SDS011;68323;49.394;8.434;2023-04-05T09:52:17;9.23;;;4.88;;
19816;SDS011;68323;49.394;8.434;2023-04-05T09:54:44;7.15;;;4.75;;
19816;SDS011;68323;49.394;8.434;2023-04-05T09:57:10;6.18;;;4.20;;
19816;SDS011;68323;49.394;8.434;2023-04-05T09:59:37;7.57;;;4.50;;
19816;SDS011;68323;49.394;8.434;2023-04-05T10:02:03;7.57;;;4.20;;
19816;SDS011;68323;49.394;8.434;2023-04-05T10:04:39;6.00;;;4.55;;
19816;SDS011;68323;49.394;8.434;2023-04-05T10:07:07;7.18;;;4.55;;
19816;SDS011;68323;49.394;8.434;2023-04-05T10:09:34;6.10;;;4.72;;
19816;SDS011;68323;49.394;8.434;2023-04-05T10:12:00;8.43;;;4.95;;
19816;SDS011;68323;49.394;8.434;2023-04-05T10:14:27;6.88;;;4.80;;
19816;SDS011;68323;49.394;8.434;2023-04-05T10:17:12;8.10;;;4.80;;
19816;SDS011;68323;49.394;8.434;2023-04-05T10:22:22;6.65;;;4.72;;
19816;SDS011;68323;49.394;8.434;2023-04-05T10:24:53;8.05;;;5.00;;
19816;SDS011;68323;49.394;8.434;2023-04-05T10:27:31;7.65;;;4.93;;
19816;SDS011;68323;49.394;8.434;2023-04-05T10:30:04;9.18;;;5.05;;
19816;SDS011;68323;49.394;8.434;2023-04-05T10:40:30;11.50;;;5.35;;
19816;SDS011;68323;49.394;8.434;2023-04-05T10:42:57;7.38;;;4.88;;
19816;SDS011;68323;49.394;8.434;2023-04-05T10:45:23;9.00;;;4.88;;
19816;SDS011;68323;49.394;8.434;2023-04-05T10:47:57;7.78;;;5.30;;
19816;SDS011;68323;49.394;8.434;2023-04-05T10:50:29;7.25;;;5.28;;
19816;SDS011;68323;49.394;8.434;2023-04-05T10:52:56;6.90;;;4.93;;
19816;SDS011;68323;49.394;8.434;2023-04-05T10:55:23;7.83;;;5.23;;
19816;SDS011;68323;49.394;8.434;2023-04-05T10:57:49;7.30;;;5.57;;
19816;SDS011;68323;49.394;8.434;2023-04-05T11:00:15;8.63;;;5.67;;
19816;SDS011;68323;49.394;8.434;2023-04-05T11:02:43;8.07;;;5.73;;
19816;SDS011;68323;49.394;8.434;2023-04-05T11:05:31;9.07;;;5.77;;
19816;SDS011;68323;49.394;8.434;2023-04-05T11:08:07;8.90;;;6.10;;
19816;SDS011;68323;49.394;8.434;2023-04-05T11:10:36;8.97;;;5.90;;
19816;SDS011;68323;49.394;8.434;2023-04-05T11:13:06;9.83;;;5.67;;
19816;SDS011;68323;49.394;8.434;2023-04-05T11:15:33;7.80;;;5.70;;
19816;SDS011;68323;49.394;8.434;2023-04-05T11:18:06;11.23;;;6.20;;
19816;SDS011;68323;49.394;8.434;2023-04-05T11:23:18;8.10;;;6.40;;
19816;SDS011;68323;49.394;8.434;2023-04-05T11:25:45;9.47;;;6.13;;
19816;SDS011;68323;49.394;8.434;2023-04-05T11:28:34;8.97;;;5.97;;
19816;SDS011;68323;49.394;8.434;2023-04-05T11:31:16;12.33;;;6.03;;
19816;SDS011;68323;49.394;8.434;2023-04-05T11:36:08;9.60;;;6.00;;
19816;SDS011;68323;49.394;8.434;2023-04-05T11:38:34;8.90;;;6.00;;
19816;SDS011;68323;49.394;8.434;2023-04-05T11:41:18;11.87;;;6.13;;
19816;SDS011;68323;49.394;8.434;2023-04-05T11:43:45;10.43;;;6.27;;
19816;SDS011;68323;49.394;8.434;2023-04-05T11:46:14;9.00;;;6.00;;
19816;SDS011;68323;49.394;8.434;2023-04-05T11:48:40;6.67;;;5.20;;
19816;SDS011;68323;49.394;8.434;2023-04-05T11:51:07;8.63;;;5.20;;
19816;SDS011;68323;49.394;8.434;2023-04-05T11:53:34;12.33;;;5.57;;
19816;SDS011;68323;49.394;8.434;2023-04-05T11:56:08;7.47;;;4.70;;
19816;SDS011;68323;49.394;8.434;2023-04-05T11:58:36;7.90;;;5.23;;
19816;SDS011;68323;49.394;8.434;2023-04-05T12:01:03;7.23;;;5.57;;
19816;SDS011;68323;49.394;8.434;2023-04-05T12:03:33;10.50;;;5.80;;
19816;SDS011;68323;49.394;8.434;2023-04-05T12:06:00;10.97;;;6.00;;
19816;SDS011;68323;49.394;8.434;2023-04-05T12:08:39;9.00;;;5.93;;
19816;SDS011;68323;49.394;8.434;2023-04-05T12:11:09;9.20;;;5.73;;
19816;SDS011;68323;49.394;8.434;2023-04-05T12:13:36;9.47;;;5.60;;
19816;SDS011;68323;49.394;8.434;2023-04-05T12:16:03;8.83;;;5.90;;
19816;SDS011;68323;49.394;8.434;2023-04-05T12:18:31;10.83;;;5.73;;
19816;SDS011;68323;49.394;8.434;2023-04-05T12:20:58;8.97;;;4.87;;
19816;SDS011;68323;49.394;8.434;2023-04-05T12:23:24;15.33;;;8.90;;
19816;SDS011;68323;49.394;8.434;2023-04-05T12:25:50;8.17;;;5.63;;
19816;SDS011;68323;49.394;8.434;2023-04-05T12:28:18;5.83;;;4.60;;
19816;SDS011;68323;49.394;8.434;2023-04-05T12:31:02;10.63;;;5.07;;
19816;SDS011;68323;49.394;8.434;2023-04-05T12:33:31;8.77;;;5.30;;
19816;SDS011;68323;49.394;8.434;2023-04-05T12:35:58;7.63;;;5.03;;
19816;SDS011;68323;49.394;8.434;2023-04-05T12:38:28;7.07;;;4.80;;
19816;SDS011;68323;49.394;8.434;2023-04-05T12:40:58;9.57;;;5.20;;
19816;SDS011;68323;49.394;8.434;2023-04-05T12:43:25;9.70;;;5.10;;
19816;SDS011;68323;49.394;8.434;2023-04-05T12:45:53;9.80;;;5.80;;
19816;SDS011;68323;49.394;8.434;2023-04-05T12:48:20;8.43;;;5.73;;
19816;SDS011;68323;49.394;8.434;2023-04-05T12:50:48;9.67;;;5.60;;
19816;SDS011;68323;49.394;8.434;2023-04-05T12:53:18;9.03;;;5.77;;
19816;SDS011;68323;49.394;8.434;2023-04-05T12:55:50;10.03;;;5.47;;
19816;SDS011;68323;49.394;8.434;2023-04-05T12:58:17;12.60;;;5.83;;
19816;SDS011;68323;49.394;8.434;2023-04-05T13:00:44;9.50;;;6.00;;
19816;SDS011;68323;49.394;8.434;2023-04-05T13:03:14;13.63;;;5.87;;
19816;SDS011;68323;49.394;8.434;2023-04-05T13:05:44;9.03;;;5.93;;
19816;SDS011;68323;49.394;8.434;2023-04-05T13:08:12;10.73;;;6.83;;
19816;SDS011;68323;49.394;8.434;2023-04-05T13:10:37;7.23;;;5.50;;
19816;SDS011;68323;49.394;8.434;2023-04-05T13:13:03;10.93;;;5.60;;
19816;SDS011;68323;49.394;8.434;2023-04-05T13:15:29;7.90;;;5.67;;
19816;SDS011;68323;49.394;8.434;2023-04-05T13:17:54;9.90;;;5.70;;
19816;SDS011;68323;49.394;8.434;2023-04-05T13:20:20;7.73;;;5.67;;
19816;SDS011;68323;49.394;8.434;2023-04-05T13:22:46;9.80;;;5.83;;
19816;SDS011;68323;49.394;8.434;2023-04-05T13:25:12;8.03;;;5.40;;
19816;SDS011;68323;49.394;8.434;2023-04-05T13:27:38;11.53;;;5.70;;
19816;SDS011;68323;49.394;8.434;2023-04-05T13:30:04;6.83;;;5.00;;
19816;SDS011;68323;49.394;8.434;2023-04-05T13:32:31;8.80;;;5.90;;
19816;SDS011;68323;49.394;8.434;2023-04-05T13:34:57;8.67;;;5.83;;
19816;SDS011;68323;49.394;8.434;2023-04-05T13:37:23;10.10;;;5.50;;
19816;SDS011;68323;49.394;8.434;2023-04-05T13:39:49;10.63;;;5.40;;
19816;SDS011;68323;49.394;8.434;2023-04-05T13:42:15;7.93;;;5.53;;
19816;SDS011;68323;49.394;8.434;2023-04-05T13:44:40;11.53;;;5.27;;
19816;SDS011;68323;49.394;8.434;2023-04-05T13:47:06;8.17;;;5.40;;
19816;SDS011;68323;49.394;8.434;2023-04-05T13:49:32;10.93;;;5.40;;
19816;SDS011;68323;49.394;8.434;2023-04-05T13:51:58;7.53;;;5.40;;
19816;SDS011;68323;49.394;8.434;2023-04-05T13:54:23;12.67;;;5.90;;
19816;SDS011;68323;49.394;8.434;2023-04-05T13:56:49;7.77;;;5.43;;
19816;SDS011;68323;49.394;8.434;2023-04-05T13:59:14;8.97;;;6.03;;
19816;SDS011;68323;49.394;8.434;2023-04-05T14:01:44;10.57;;;5.97;;
19816;SDS011;68323;49.394;8.434;2023-04-05T14:04:10;7.97;;;5.93;;
19816;SDS011;68323;49.394;8.434;2023-04-05T14:06:36;9.03;;;6.03;;
19816;SDS011;68323;49.394;8.434;2023-04-05T14:09:02;9.90;;;5.70;;
19816;SDS011;68323;49.394;8.434;2023-04-05T14:11:27;8.90;;;5.90;;
19816;SDS011;68323;49.394;8.434;2023-04-05T14:13:53;10.67;;;6.73;;
19816;SDS011;68323;49.394;8.434;2023-04-05T14:16:19;9.63;;;6.30;;
19816;SDS011;68323;49.394;8.434;2023-04-05T14:18:44;11.40;;;6.40;;
19816;SDS011;68323;49.394;8.434;2023-04-05T14:21:10;9.23;;;6.87;;
19816;SDS011;68323;49.394;8.434;2023-04-05T14:23:36;8.50;;;6.60;;
19816;SDS011;68323;49.394;8.434;2023-04-05T14:26:01;11.17;;;7.00;;
19816;SDS011;68323;49.394;8.434;2023-04-05T14:28:27;9.57;;;7.17;;
19816;SDS011;68323;49.394;8.434;2023-04-05T14:30:53;9.97;;;7.20;;
19816;SDS011;68323;49.394;8.434;2023-04-05T14:33:18;11.20;;;7.40;;
19816;SDS011;68323;49.394;8.434;2023-04-05T14:35:44;11.23;;;7.00;;
19816;SDS011;68323;49.394;8.434;2023-04-05T14:38:10;8.93;;;6.47;;
19816;SDS011;68323;49.394;8.434;2023-04-05T14:40:36;13.43;;;7.70;;
19816;SDS011;68323;49.394;8.434;2023-04-05T14:43:01;11.27;;;7.57;;
19816;SDS011;68323;49.394;8.434;2023-04-05T14:45:27;12.87;;;7.63;;
19816;SDS011;68323;49.394;8.434;2023-04-05T14:47:53;12.97;;;7.60;;
19816;SDS011;68323;49.394;8.434;2023-04-05T14:50:19;13.73;;;7.80;;
19816;SDS011;68323;49.394;8.434;2023-04-05T14:52:44;10.17;;;6.90;;
19816;SDS011;68323;49.394;8.434;2023-04-05T14:55:11;10.60;;;7.70;;
19816;SDS011;68323;49.394;8.434;2023-04-05T14:57:37;10.20;;;7.00;;
19816;SDS011;68323;49.394;8.434;2023-04-05T15:00:04;11.17;;;6.90;;
19816;SDS011;68323;49.394;8.434;2023-04-05T15:02:31;9.77;;;7.20;;
19816;SDS011;68323;49.394;8.434;2023-04-05T15:04:57;12.53;;;7.40;;
19816;SDS011;68323;49.394;8.434;2023-04-05T15:07:24;11.53;;;6.87;;
19816;SDS011;68323;49.394;8.434;2023-04-05T15:09:50;10.20;;;7.10;;